sensor_id;sensor_type;location;lat;lon;timestamp;P1;durP1;ratioP1;P2;durP2;ratioP2
55813;SDS011;65494;42.818;0.404;2023-06-14T00:01:32;3.15;;;1.00;;
55813;SDS011;65494;42.818;0.404;2023-06-14T00:03:59;1.13;;;0.70;;
55813;SDS011;65494;42.818;0.404;2023-06-14T00:06:26;3.83;;;0.80;;
55813;SDS011;65494;42.818;0.404;2023-06-14T00:08:52;2.60;;;0.80;;
55813;SDS011;65494;42.818;0.404;2023-06-14T00:11:19;3.10;;;0.70;;
55813;SDS011;65494;42.818;0.404;2023-06-14T00:13:45;2.28;;;0.70;;
55813;SDS011;65494;42.818;0.404;2023-06-14T00:16:12;2.03;;;0.80;;
55813;SDS011;65494;42.818;0.404;2023-06-14T00:18:38;3.45;;;0.75;;
55813;SDS011;65494;42.818;0.404;2023-06-14T00:21:05;1.02;;;0.70;;
55813;SDS011;65494;42.818;0.404;2023-06-14T00:23:31;2.25;;;0.80;;
55813;SDS011;65494;42.818;0.404;2023-06-14T00:25:57;1.20;;;0.57;;
55813;SDS011;65494;42.818;0.404;2023-06-14T00:28:23;1.80;;;0.80;;
55813;SDS011;65494;42.818;0.404;2023-06-14T00:30:49;1.23;;;0.70;;
55813;SDS011;65494;42.818;0.404;2023-06-14T00:33:15;1.42;;;0.90;;
55813;SDS011;65494;42.818;0.404;2023-06-14T00:35:41;2.58;;;0.85;;
55813;SDS011;65494;42.818;0.404;2023-06-14T00:38:07;6.90;;;0.90;;
55813;SDS011;65494;42.818;0.404;2023-06-14T00:40:33;3.25;;;0.90;;
55813;SDS011;65494;42.818;0.404;2023-06-14T00:43:00;3.67;;;0.90;;
55813;SDS011;65494;42.818;0.404;2023-06-14T00:45:26;4.53;;;0.80;;
55813;SDS011;65494;42.818;0.404;2023-06-14T00:47:52;3.67;;;0.90;;
55813;SDS011;65494;42.818;0.404;2023-06-14T00:50:20;3.10;;;0.90;;
55813;SDS011;65494;42.818;0.404;2023-06-14T00:52:48;1.63;;;0.70;;
55813;SDS011;65494;42.818;0.404;2023-06-14T00:55:14;1.05;;;0.80;;
55813;SDS011;65494;42.818;0.404;2023-06-14T00:57:40;1.65;;;0.80;;
55813;SDS011;65494;42.818;0.404;2023-06-14T01:00:07;1.98;;;0.70;;
55813;SDS011;65494;42.818;0.404;2023-06-14T01:02:38;4.63;;;0.80;;
55813;SDS011;65494;42.818;0.404;2023-06-14T01:05:04;2.25;;;0.68;;
55813;SDS011;65494;42.818;0.404;2023-06-14T01:15:11;1.27;;;0.90;;
55813;SDS011;65494;42.818;0.404;2023-06-14T01:17:38;2.17;;;0.75;;
55813;SDS011;65494;42.818;0.404;2023-06-14T01:20:08;2.35;;;0.77;;
55813;SDS011;65494;42.818;0.404;2023-06-14T01:22:37;1.60;;;0.60;;
55813;SDS011;65494;42.818;0.404;2023-06-14T01:25:03;1.17;;;0.80;;
55813;SDS011;65494;42.818;0.404;2023-06-14T01:27:29;1.50;;;0.80;;
55813;SDS011;65494;42.818;0.404;2023-06-14T01:29:57;2.45;;;0.70;;
55813;SDS011;65494;42.818;0.404;2023-06-14T01:34:50;1.75;;;0.80;;
55813;SDS011;65494;42.818;0.404;2023-06-14T01:37:17;1.58;;;0.80;;
55813;SDS011;65494;42.818;0.404;2023-06-14T01:39:43;0.60;;;0.60;;
55813;SDS011;65494;42.818;0.404;2023-06-14T01:42:10;2.90;;;0.80;;
55813;SDS011;65494;42.818;0.404;2023-06-14T01:44:37;1.70;;;0.80;;
55813;SDS011;65494;42.818;0.404;2023-06-14T01:47:03;1.05;;;0.75;;
55813;SDS011;65494;42.818;0.404;2023-06-14T01:49:29;3.05;;;1.02;;
55813;SDS011;65494;42.818;0.404;2023-06-14T01:51:59;1.00;;;0.80;;
55813;SDS011;65494;42.818;0.404;2023-06-14T01:54:25;4.65;;;0.80;;
55813;SDS011;65494;42.818;0.404;2023-06-14T01:56:51;0.60;;;0.60;;
55813;SDS011;65494;42.818;0.404;2023-06-14T01:59:17;1.00;;;0.73;;
55813;SDS011;65494;42.818;0.404;2023-06-14T02:01:43;2.55;;;0.85;;
55813;SDS011;65494;42.818;0.404;2023-06-14T02:04:11;2.42;;;0.90;;
55813;SDS011;65494;42.818;0.404;2023-06-14T02:06:37;2.65;;;0.80;;
55813;SDS011;65494;42.818;0.404;2023-06-14T02:09:03;1.17;;;0.85;;
55813;SDS011;65494;42.818;0.404;2023-06-14T02:11:29;3.10;;;0.80;;
55813;SDS011;65494;42.818;0.404;2023-06-14T02:13:55;1.52;;;0.80;;
55813;SDS011;65494;42.818;0.404;2023-06-14T02:16:21;0.85;;;0.68;;
55813;SDS011;65494;42.818;0.404;2023-06-14T02:18:48;3.50;;;0.75;;
55813;SDS011;65494;42.818;0.404;2023-06-14T02:21:14;1.52;;;0.70;;
55813;SDS011;65494;42.818;0.404;2023-06-14T02:23:40;2.03;;;0.90;;
55813;SDS011;65494;42.818;0.404;2023-06-14T02:26:06;2.90;;;0.90;;
55813;SDS011;65494;42.818;0.404;2023-06-14T02:28:32;4.30;;;1.10;;
55813;SDS011;65494;42.818;0.404;2023-06-14T02:30:58;6.32;;;1.00;;
55813;SDS011;65494;42.818;0.404;2023-06-14T02:33:25;1.73;;;0.80;;
55813;SDS011;65494;42.818;0.404;2023-06-14T02:35:52;4.35;;;0.82;;
55813;SDS011;65494;42.818;0.404;2023-06-14T02:38:18;1.02;;;0.80;;
55813;SDS011;65494;42.818;0.404;2023-06-14T02:40:44;3.78;;;0.77;;
55813;SDS011;65494;42.818;0.404;2023-06-14T02:43:10;2.58;;;1.00;;
55813;SDS011;65494;42.818;0.404;2023-06-14T02:45:36;2.20;;;1.00;;
55813;SDS011;65494;42.818;0.404;2023-06-14T02:48:03;7.55;;;1.10;;
55813;SDS011;65494;42.818;0.404;2023-06-14T02:50:29;3.55;;;1.00;;
55813;SDS011;65494;42.818;0.404;2023-06-14T02:52:55;1.88;;;0.80;;
55813;SDS011;65494;42.818;0.404;2023-06-14T02:55:22;1.17;;;0.88;;
55813;SDS011;65494;42.818;0.404;2023-06-14T02:57:48;2.30;;;1.00;;
55813;SDS011;65494;42.818;0.404;2023-06-14T03:00:14;1.85;;;0.90;;
55813;SDS011;65494;42.818;0.404;2023-06-14T03:02:41;2.75;;;0.88;;
55813;SDS011;65494;42.818;0.404;2023-06-14T03:05:10;1.20;;;0.95;;
55813;SDS011;65494;42.818;0.404;2023-06-14T03:07:37;2.83;;;0.82;;
55813;SDS011;65494;42.818;0.404;2023-06-14T03:10:07;2.55;;;0.90;;
55813;SDS011;65494;42.818;0.404;2023-06-14T03:12:34;1.65;;;0.95;;
55813;SDS011;65494;42.818;0.404;2023-06-14T03:15:00;1.48;;;0.60;;
55813;SDS011;65494;42.818;0.404;2023-06-14T03:17:27;1.48;;;0.82;;
55813;SDS011;65494;42.818;0.404;2023-06-14T03:19:55;2.47;;;1.02;;
55813;SDS011;65494;42.818;0.404;2023-06-14T03:22:21;3.33;;;0.90;;
55813;SDS011;65494;42.818;0.404;2023-06-14T03:24:47;1.08;;;0.77;;
55813;SDS011;65494;42.818;0.404;2023-06-14T03:27:13;2.22;;;0.70;;
55813;SDS011;65494;42.818;0.404;2023-06-14T03:29:39;1.52;;;1.00;;
55813;SDS011;65494;42.818;0.404;2023-06-14T03:32:05;2.13;;;1.00;;
55813;SDS011;65494;42.818;0.404;2023-06-14T03:34:31;1.88;;;0.90;;
55813;SDS011;65494;42.818;0.404;2023-06-14T03:36:57;1.83;;;1.05;;
55813;SDS011;65494;42.818;0.404;2023-06-14T03:39:24;3.30;;;1.30;;
55813;SDS011;65494;42.818;0.404;2023-06-14T03:41:50;1.30;;;1.05;;
55813;SDS011;65494;42.818;0.404;2023-06-14T03:44:16;2.58;;;1.42;;
55813;SDS011;65494;42.818;0.404;2023-06-14T03:46:43;1.70;;;1.10;;
55813;SDS011;65494;42.818;0.404;2023-06-14T03:49:10;1.90;;;0.90;;
55813;SDS011;65494;42.818;0.404;2023-06-14T03:51:36;2.17;;;0.75;;
55813;SDS011;65494;42.818;0.404;2023-06-14T03:54:02;3.33;;;0.93;;
55813;SDS011;65494;42.818;0.404;2023-06-14T03:56:28;1.27;;;0.88;;
55813;SDS011;65494;42.818;0.404;2023-06-14T03:58:55;1.77;;;1.00;;
55813;SDS011;65494;42.818;0.404;2023-06-14T04:01:21;5.15;;;1.00;;
55813;SDS011;65494;42.818;0.404;2023-06-14T04:03:52;6.65;;;1.20;;
55813;SDS011;65494;42.818;0.404;2023-06-14T04:06:18;1.63;;;0.95;;
55813;SDS011;65494;42.818;0.404;2023-06-14T04:08:44;2.08;;;0.98;;
55813;SDS011;65494;42.818;0.404;2023-06-14T04:11:11;4.07;;;0.82;;
55813;SDS011;65494;42.818;0.404;2023-06-14T04:13:37;1.13;;;0.80;;
55813;SDS011;65494;42.818;0.404;2023-06-14T04:16:04;2.75;;;1.10;;
55813;SDS011;65494;42.818;0.404;2023-06-14T04:18:30;1.30;;;0.85;;
55813;SDS011;65494;42.818;0.404;2023-06-14T04:20:56;2.15;;;1.20;;
55813;SDS011;65494;42.818;0.404;2023-06-14T04:23:22;2.60;;;0.98;;
55813;SDS011;65494;42.818;0.404;2023-06-14T04:25:48;2.67;;;1.10;;
55813;SDS011;65494;42.818;0.404;2023-06-14T04:28:16;2.35;;;1.10;;
55813;SDS011;65494;42.818;0.404;2023-06-14T04:30:43;5.63;;;1.10;;
55813;SDS011;65494;42.818;0.404;2023-06-14T04:33:09;1.30;;;0.90;;
55813;SDS011;65494;42.818;0.404;2023-06-14T04:35:36;4.50;;;1.30;;
55813;SDS011;65494;42.818;0.404;2023-06-14T04:38:03;2.60;;;1.02;;
55813;SDS011;65494;42.818;0.404;2023-06-14T04:40:30;4.20;;;1.10;;
55813;SDS011;65494;42.818;0.404;2023-06-14T04:42:56;5.60;;;1.08;;
55813;SDS011;65494;42.818;0.404;2023-06-14T04:45:23;2.63;;;1.10;;
55813;SDS011;65494;42.818;0.404;2023-06-14T04:47:49;2.20;;;1.00;;
55813;SDS011;65494;42.818;0.404;2023-06-14T04:50:16;2.33;;;0.98;;
55813;SDS011;65494;42.818;0.404;2023-06-14T04:52:43;1.98;;;0.90;;
55813;SDS011;65494;42.818;0.404;2023-06-14T04:55:09;4.97;;;0.90;;
55813;SDS011;65494;42.818;0.404;2023-06-14T04:57:35;2.47;;;0.88;;
55813;SDS011;65494;42.818;0.404;2023-06-14T05:00:03;0.80;;;0.80;;
55813;SDS011;65494;42.818;0.404;2023-06-14T05:02:30;3.90;;;0.80;;
55813;SDS011;65494;42.818;0.404;2023-06-14T05:04:56;1.05;;;0.80;;
55813;SDS011;65494;42.818;0.404;2023-06-14T05:07:24;1.77;;;0.93;;
55813;SDS011;65494;42.818;0.404;2023-06-14T05:09:50;1.27;;;1.00;;
55813;SDS011;65494;42.818;0.404;2023-06-14T05:12:16;1.52;;;0.80;;
55813;SDS011;65494;42.818;0.404;2023-06-14T05:14:43;2.83;;;0.90;;
55813;SDS011;65494;42.818;0.404;2023-06-14T05:17:10;2.65;;;1.15;;
55813;SDS011;65494;42.818;0.404;2023-06-14T05:19:36;1.95;;;0.80;;
55813;SDS011;65494;42.818;0.404;2023-06-14T05:22:03;1.92;;;1.10;;
55813;SDS011;65494;42.818;0.404;2023-06-14T05:24:29;1.30;;;1.00;;
55813;SDS011;65494;42.818;0.404;2023-06-14T05:26:57;1.25;;;0.80;;
55813;SDS011;65494;42.818;0.404;2023-06-14T05:29:23;2.67;;;1.08;;
55813;SDS011;65494;42.818;0.404;2023-06-14T05:31:49;4.97;;;1.40;;
55813;SDS011;65494;42.818;0.404;2023-06-14T05:34:15;3.35;;;1.30;;
55813;SDS011;65494;42.818;0.404;2023-06-14T05:36:41;4.07;;;1.15;;
55813;SDS011;65494;42.818;0.404;2023-06-14T05:39:07;2.15;;;1.17;;
55813;SDS011;65494;42.818;0.404;2023-06-14T05:41:35;2.03;;;1.10;;
55813;SDS011;65494;42.818;0.404;2023-06-14T05:44:01;1.88;;;1.00;;
55813;SDS011;65494;42.818;0.404;2023-06-14T05:46:27;2.95;;;1.40;;
55813;SDS011;65494;42.818;0.404;2023-06-14T05:48:53;1.90;;;1.00;;
55813;SDS011;65494;42.818;0.404;2023-06-14T05:51:20;1.60;;;1.10;;
55813;SDS011;65494;42.818;0.404;2023-06-14T05:53:47;3.78;;;1.10;;
55813;SDS011;65494;42.818;0.404;2023-06-14T05:56:13;1.77;;;0.90;;
55813;SDS011;65494;42.818;0.404;2023-06-14T05:58:39;3.17;;;1.20;;
55813;SDS011;65494;42.818;0.404;2023-06-14T06:01:06;1.60;;;1.08;;
55813;SDS011;65494;42.818;0.404;2023-06-14T06:03:32;3.05;;;1.08;;
55813;SDS011;65494;42.818;0.404;2023-06-14T06:05:59;3.10;;;1.13;;
55813;SDS011;65494;42.818;0.404;2023-06-14T06:08:26;2.78;;;1.20;;
55813;SDS011;65494;42.818;0.404;2023-06-14T06:10:52;2.90;;;1.30;;
55813;SDS011;65494;42.818;0.404;2023-06-14T06:13:18;2.00;;;1.00;;
55813;SDS011;65494;42.818;0.404;2023-06-14T06:15:44;2.10;;;1.02;;
55813;SDS011;65494;42.818;0.404;2023-06-14T06:18:11;1.20;;;1.08;;
55813;SDS011;65494;42.818;0.404;2023-06-14T06:20:37;1.38;;;1.13;;
55813;SDS011;65494;42.818;0.404;2023-06-14T06:23:03;2.08;;;1.20;;
55813;SDS011;65494;42.818;0.404;2023-06-14T06:25:30;2.58;;;1.20;;
55813;SDS011;65494;42.818;0.404;2023-06-14T06:27:56;1.35;;;0.80;;
55813;SDS011;65494;42.818;0.404;2023-06-14T06:30:23;2.00;;;1.00;;
55813;SDS011;65494;42.818;0.404;2023-06-14T06:32:49;4.40;;;1.15;;
55813;SDS011;65494;42.818;0.404;2023-06-14T06:35:16;5.50;;;1.00;;
55813;SDS011;65494;42.818;0.404;2023-06-14T06:37:42;1.33;;;1.00;;
55813;SDS011;65494;42.818;0.404;2023-06-14T06:40:08;1.20;;;0.90;;
55813;SDS011;65494;42.818;0.404;2023-06-14T06:42:35;2.40;;;1.33;;
55813;SDS011;65494;42.818;0.404;2023-06-14T06:45:01;1.73;;;1.00;;
55813;SDS011;65494;42.818;0.404;2023-06-14T06:47:27;5.10;;;1.40;;
55813;SDS011;65494;42.818;0.404;2023-06-14T06:49:55;1.50;;;1.10;;
55813;SDS011;65494;42.818;0.404;2023-06-14T06:52:21;8.07;;;1.85;;
55813;SDS011;65494;42.818;0.404;2023-06-14T06:54:47;3.72;;;1.35;;
55813;SDS011;65494;42.818;0.404;2023-06-14T06:57:14;4.03;;;1.80;;
55813;SDS011;65494;42.818;0.404;2023-06-14T06:59:40;1.85;;;1.25;;
55813;SDS011;65494;42.818;0.404;2023-06-14T07:02:06;2.17;;;1.20;;
55813;SDS011;65494;42.818;0.404;2023-06-14T07:04:32;3.03;;;1.30;;
55813;SDS011;65494;42.818;0.404;2023-06-14T07:06:58;8.50;;;1.60;;
55813;SDS011;65494;42.818;0.404;2023-06-14T07:09:24;2.03;;;1.42;;
55813;SDS011;65494;42.818;0.404;2023-06-14T07:11:50;3.50;;;1.35;;
55813;SDS011;65494;42.818;0.404;2023-06-14T07:14:17;2.25;;;1.30;;
55813;SDS011;65494;42.818;0.404;2023-06-14T07:16:43;3.80;;;1.10;;
55813;SDS011;65494;42.818;0.404;2023-06-14T07:19:09;1.85;;;1.23;;
55813;SDS011;65494;42.818;0.404;2023-06-14T07:21:36;5.55;;;1.60;;
55813;SDS011;65494;42.818;0.404;2023-06-14T07:24:04;2.72;;;1.60;;
55813;SDS011;65494;42.818;0.404;2023-06-14T07:26:31;3.25;;;1.70;;
55813;SDS011;65494;42.818;0.404;2023-06-14T07:28:57;5.15;;;1.45;;
55813;SDS011;65494;42.818;0.404;2023-06-14T07:31:23;3.10;;;1.35;;
55813;SDS011;65494;42.818;0.404;2023-06-14T07:33:49;3.70;;;1.50;;
55813;SDS011;65494;42.818;0.404;2023-06-14T07:36:15;2.40;;;1.45;;
55813;SDS011;65494;42.818;0.404;2023-06-14T07:38:43;3.05;;;1.60;;
55813;SDS011;65494;42.818;0.404;2023-06-14T07:41:10;3.92;;;1.58;;
55813;SDS011;65494;42.818;0.404;2023-06-14T07:43:36;3.20;;;1.50;;
55813;SDS011;65494;42.818;0.404;2023-06-14T07:46:02;2.10;;;1.40;;
55813;SDS011;65494;42.818;0.404;2023-06-14T07:48:28;2.00;;;1.50;;
55813;SDS011;65494;42.818;0.404;2023-06-14T07:50:54;2.45;;;1.42;;
55813;SDS011;65494;42.818;0.404;2023-06-14T07:53:20;3.08;;;1.80;;
55813;SDS011;65494;42.818;0.404;2023-06-14T07:55:48;3.50;;;1.63;;
55813;SDS011;65494;42.818;0.404;2023-06-14T07:58:16;2.65;;;1.90;;
55813;SDS011;65494;42.818;0.404;2023-06-14T08:00:43;6.55;;;2.40;;
55813;SDS011;65494;42.818;0.404;2023-06-14T08:03:09;4.10;;;1.83;;
55813;SDS011;65494;42.818;0.404;2023-06-14T08:05:35;4.32;;;2.25;;
55813;SDS011;65494;42.818;0.404;2023-06-14T08:08:01;7.25;;;2.33;;
55813;SDS011;65494;42.818;0.404;2023-06-14T08:10:28;7.47;;;2.30;;
55813;SDS011;65494;42.818;0.404;2023-06-14T08:12:54;3.08;;;1.95;;
55813;SDS011;65494;42.818;0.404;2023-06-14T08:15:20;3.78;;;2.25;;
55813;SDS011;65494;42.818;0.404;2023-06-14T08:17:46;3.17;;;2.00;;
55813;SDS011;65494;42.818;0.404;2023-06-14T08:20:13;5.15;;;2.33;;
55813;SDS011;65494;42.818;0.404;2023-06-14T08:22:42;4.45;;;2.00;;
55813;SDS011;65494;42.818;0.404;2023-06-14T08:25:08;6.97;;;2.15;;
55813;SDS011;65494;42.818;0.404;2023-06-14T08:27:35;5.10;;;2.45;;
55813;SDS011;65494;42.818;0.404;2023-06-14T08:30:01;4.72;;;2.50;;
55813;SDS011;65494;42.818;0.404;2023-06-14T08:32:28;6.30;;;2.13;;
55813;SDS011;65494;42.818;0.404;2023-06-14T08:34:54;5.13;;;2.50;;
55813;SDS011;65494;42.818;0.404;2023-06-14T08:37:20;3.60;;;2.50;;
55813;SDS011;65494;42.818;0.404;2023-06-14T08:39:46;4.70;;;2.10;;
55813;SDS011;65494;42.818;0.404;2023-06-14T08:42:13;6.82;;;2.50;;
55813;SDS011;65494;42.818;0.404;2023-06-14T08:44:40;3.70;;;2.20;;
55813;SDS011;65494;42.818;0.404;2023-06-14T08:47:07;4.85;;;2.70;;
55813;SDS011;65494;42.818;0.404;2023-06-14T08:49:34;4.85;;;2.50;;
55813;SDS011;65494;42.818;0.404;2023-06-14T08:52:02;6.32;;;2.47;;
55813;SDS011;65494;42.818;0.404;2023-06-14T08:54:29;3.95;;;2.33;;
55813;SDS011;65494;42.818;0.404;2023-06-14T08:56:59;5.88;;;2.60;;
55813;SDS011;65494;42.818;0.404;2023-06-14T08:59:26;3.92;;;2.22;;
55813;SDS011;65494;42.818;0.404;2023-06-14T09:01:52;5.22;;;2.67;;
55813;SDS011;65494;42.818;0.404;2023-06-14T09:04:22;6.25;;;2.60;;
55813;SDS011;65494;42.818;0.404;2023-06-14T09:06:50;5.95;;;3.00;;
55813;SDS011;65494;42.818;0.404;2023-06-14T09:09:21;6.35;;;3.30;;
55813;SDS011;65494;42.818;0.404;2023-06-14T09:12:03;7.70;;;3.60;;
55813;SDS011;65494;42.818;0.404;2023-06-14T09:14:33;6.05;;;3.60;;
55813;SDS011;65494;42.818;0.404;2023-06-14T09:17:03;6.72;;;3.10;;
55813;SDS011;65494;42.818;0.404;2023-06-14T09:19:29;6.72;;;3.50;;
55813;SDS011;65494;42.818;0.404;2023-06-14T09:21:56;6.20;;;3.45;;
55813;SDS011;65494;42.818;0.404;2023-06-14T09:24:23;8.25;;;3.53;;
55813;SDS011;65494;42.818;0.404;2023-06-14T09:26:51;5.70;;;3.20;;
55813;SDS011;65494;42.818;0.404;2023-06-14T09:29:17;9.32;;;3.30;;
55813;SDS011;65494;42.818;0.404;2023-06-14T09:31:46;7.15;;;3.78;;
55813;SDS011;65494;42.818;0.404;2023-06-14T09:34:12;7.57;;;4.28;;
55813;SDS011;65494;42.818;0.404;2023-06-14T09:36:39;12.25;;;3.72;;
55813;SDS011;65494;42.818;0.404;2023-06-14T09:39:07;5.97;;;3.55;;
55813;SDS011;65494;42.818;0.404;2023-06-14T09:41:37;8.88;;;4.38;;
55813;SDS011;65494;42.818;0.404;2023-06-14T09:44:05;7.07;;;3.78;;
55813;SDS011;65494;42.818;0.404;2023-06-14T09:46:32;9.82;;;4.03;;
55813;SDS011;65494;42.818;0.404;2023-06-14T09:48:58;7.55;;;3.80;;
55813;SDS011;65494;42.818;0.404;2023-06-14T09:51:25;7.45;;;4.25;;
55813;SDS011;65494;42.818;0.404;2023-06-14T09:53:53;6.53;;;3.70;;
55813;SDS011;65494;42.818;0.404;2023-06-14T09:56:31;7.50;;;3.45;;
55813;SDS011;65494;42.818;0.404;2023-06-14T09:58:58;8.43;;;3.53;;
55813;SDS011;65494;42.818;0.404;2023-06-14T10:01:25;5.25;;;2.97;;
55813;SDS011;65494;42.818;0.404;2023-06-14T10:04:13;16.15;;;3.70;;
55813;SDS011;65494;42.818;0.404;2023-06-14T10:06:43;6.78;;;3.35;;
55813;SDS011;65494;42.818;0.404;2023-06-14T10:09:11;11.93;;;4.70;;
55813;SDS011;65494;42.818;0.404;2023-06-14T10:11:37;6.57;;;3.70;;
55813;SDS011;65494;42.818;0.404;2023-06-14T10:14:08;7.57;;;3.85;;
55813;SDS011;65494;42.818;0.404;2023-06-14T10:21:37;10.85;;;4.28;;
55813;SDS011;65494;42.818;0.404;2023-06-14T10:24:08;12.57;;;4.35;;
55813;SDS011;65494;42.818;0.404;2023-06-14T10:26:35;9.43;;;4.68;;
55813;SDS011;65494;42.818;0.404;2023-06-14T10:29:15;15.45;;;5.82;;
55813;SDS011;65494;42.818;0.404;2023-06-14T10:34:07;12.02;;;5.50;;
55813;SDS011;65494;42.818;0.404;2023-06-14T10:36:34;11.75;;;5.38;;
55813;SDS011;65494;42.818;0.404;2023-06-14T10:39:16;9.98;;;5.18;;
55813;SDS011;65494;42.818;0.404;2023-06-14T10:41:50;13.88;;;7.07;;
55813;SDS011;65494;42.818;0.404;2023-06-14T10:46:47;17.58;;;10.57;;
55813;SDS011;65494;42.818;0.404;2023-06-14T10:49:17;16.15;;;8.68;;
55813;SDS011;65494;42.818;0.404;2023-06-14T10:51:49;17.23;;;9.07;;
55813;SDS011;65494;42.818;0.404;2023-06-14T10:54:16;14.63;;;9.25;;
55813;SDS011;65494;42.818;0.404;2023-06-14T10:56:49;14.38;;;8.45;;
55813;SDS011;65494;42.818;0.404;2023-06-14T10:59:16;14.90;;;8.93;;
55813;SDS011;65494;42.818;0.404;2023-06-14T11:04:34;13.70;;;8.48;;
55813;SDS011;65494;42.818;0.404;2023-06-14T11:07:43;18.75;;;9.20;;
55813;SDS011;65494;42.818;0.404;2023-06-14T11:12:28;14.68;;;9.32;;
55813;SDS011;65494;42.818;0.404;2023-06-14T11:14:54;13.95;;;9.07;;
55813;SDS011;65494;42.818;0.404;2023-06-14T11:17:20;16.35;;;10.23;;
55813;SDS011;65494;42.818;0.404;2023-06-14T11:19:46;15.20;;;9.20;;
55813;SDS011;65494;42.818;0.404;2023-06-14T11:22:13;15.73;;;9.50;;
55813;SDS011;65494;42.818;0.404;2023-06-14T11:24:40;16.80;;;8.48;;
55813;SDS011;65494;42.818;0.404;2023-06-14T11:27:06;22.77;;;10.02;;
55813;SDS011;65494;42.818;0.404;2023-06-14T11:29:33;14.68;;;9.38;;
55813;SDS011;65494;42.818;0.404;2023-06-14T11:31:59;13.63;;;8.20;;
55813;SDS011;65494;42.818;0.404;2023-06-14T11:34:29;14.57;;;9.07;;
55813;SDS011;65494;42.818;0.404;2023-06-14T11:36:56;15.25;;;8.68;;
55813;SDS011;65494;42.818;0.404;2023-06-14T11:39:24;17.70;;;8.25;;
55813;SDS011;65494;42.818;0.404;2023-06-14T11:41:52;12.27;;;7.43;;
55813;SDS011;65494;42.818;0.404;2023-06-14T11:44:18;13.90;;;7.95;;
55813;SDS011;65494;42.818;0.404;2023-06-14T11:46:44;12.48;;;7.30;;
55813;SDS011;65494;42.818;0.404;2023-06-14T11:49:10;11.55;;;7.18;;
55813;SDS011;65494;42.818;0.404;2023-06-14T11:51:36;13.98;;;7.55;;
55813;SDS011;65494;42.818;0.404;2023-06-14T11:54:03;12.63;;;7.47;;
55813;SDS011;65494;42.818;0.404;2023-06-14T11:56:30;15.32;;;7.63;;
55813;SDS011;65494;42.818;0.404;2023-06-14T11:58:57;14.70;;;8.18;;
55813;SDS011;65494;42.818;0.404;2023-06-14T12:01:24;16.02;;;7.70;;
55813;SDS011;65494;42.818;0.404;2023-06-14T12:03:51;12.88;;;7.60;;
55813;SDS011;65494;42.818;0.404;2023-06-14T12:06:29;14.75;;;7.68;;
55813;SDS011;65494;42.818;0.404;2023-06-14T12:08:58;14.30;;;7.78;;
55813;SDS011;65494;42.818;0.404;2023-06-14T12:11:31;13.95;;;7.68;;
55813;SDS011;65494;42.818;0.404;2023-06-14T12:13:58;13.15;;;7.95;;
55813;SDS011;65494;42.818;0.404;2023-06-14T12:16:29;12.35;;;7.28;;
55813;SDS011;65494;42.818;0.404;2023-06-14T12:18:56;12.85;;;8.05;;
55813;SDS011;65494;42.818;0.404;2023-06-14T12:21:26;13.52;;;8.43;;
55813;SDS011;65494;42.818;0.404;2023-06-14T12:23:53;16.70;;;7.95;;
55813;SDS011;65494;42.818;0.404;2023-06-14T12:26:20;15.68;;;7.28;;
55813;SDS011;65494;42.818;0.404;2023-06-14T12:28:46;18.20;;;8.50;;
55813;SDS011;65494;42.818;0.404;2023-06-14T12:31:13;14.30;;;7.82;;
55813;SDS011;65494;42.818;0.404;2023-06-14T12:33:40;14.88;;;8.23;;
55813;SDS011;65494;42.818;0.404;2023-06-14T12:36:06;13.20;;;7.50;;
55813;SDS011;65494;42.818;0.404;2023-06-14T12:38:33;12.10;;;7.35;;
55813;SDS011;65494;42.818;0.404;2023-06-14T12:41:00;12.70;;;7.22;;
55813;SDS011;65494;42.818;0.404;2023-06-14T12:43:26;12.40;;;8.05;;
55813;SDS011;65494;42.818;0.404;2023-06-14T12:45:52;12.68;;;7.38;;
55813;SDS011;65494;42.818;0.404;2023-06-14T12:48:19;13.02;;;7.45;;
55813;SDS011;65494;42.818;0.404;2023-06-14T12:50:45;13.75;;;7.80;;
55813;SDS011;65494;42.818;0.404;2023-06-14T12:53:11;12.65;;;7.43;;
55813;SDS011;65494;42.818;0.404;2023-06-14T12:55:37;13.07;;;6.68;;
55813;SDS011;65494;42.818;0.404;2023-06-14T12:58:03;15.25;;;8.23;;
55813;SDS011;65494;42.818;0.404;2023-06-14T13:00:29;16.08;;;7.50;;
55813;SDS011;65494;42.818;0.404;2023-06-14T13:02:59;15.32;;;8.55;;
55813;SDS011;65494;42.818;0.404;2023-06-14T13:05:25;15.75;;;9.45;;
55813;SDS011;65494;42.818;0.404;2023-06-14T13:07:51;15.32;;;9.57;;
55813;SDS011;65494;42.818;0.404;2023-06-14T13:10:17;15.18;;;8.50;;
55813;SDS011;65494;42.818;0.404;2023-06-14T13:12:43;15.32;;;9.38;;
55813;SDS011;65494;42.818;0.404;2023-06-14T13:15:10;14.05;;;8.27;;
55813;SDS011;65494;42.818;0.404;2023-06-14T13:17:38;18.25;;;8.25;;
55813;SDS011;65494;42.818;0.404;2023-06-14T13:20:07;16.35;;;8.73;;
55813;SDS011;65494;42.818;0.404;2023-06-14T13:22:34;14.73;;;8.82;;
55813;SDS011;65494;42.818;0.404;2023-06-14T13:25:01;13.00;;;8.35;;
55813;SDS011;65494;42.818;0.404;2023-06-14T13:27:28;14.77;;;7.57;;
55813;SDS011;65494;42.818;0.404;2023-06-14T13:29:54;14.60;;;7.65;;
55813;SDS011;65494;42.818;0.404;2023-06-14T13:32:21;12.25;;;7.90;;
55813;SDS011;65494;42.818;0.404;2023-06-14T13:34:47;13.57;;;8.38;;
55813;SDS011;65494;42.818;0.404;2023-06-14T13:37:13;13.40;;;7.35;;
55813;SDS011;65494;42.818;0.404;2023-06-14T13:39:39;13.90;;;6.90;;
55813;SDS011;65494;42.818;0.404;2023-06-14T13:42:05;12.25;;;7.63;;
55813;SDS011;65494;42.818;0.404;2023-06-14T13:44:32;10.70;;;6.75;;
55813;SDS011;65494;42.818;0.404;2023-06-14T13:46:58;12.68;;;7.18;;
55813;SDS011;65494;42.818;0.404;2023-06-14T13:49:24;16.00;;;7.75;;
55813;SDS011;65494;42.818;0.404;2023-06-14T13:51:50;14.18;;;8.05;;
55813;SDS011;65494;42.818;0.404;2023-06-14T13:54:18;10.07;;;5.63;;
55813;SDS011;65494;42.818;0.404;2023-06-14T13:56:45;10.57;;;6.30;;
55813;SDS011;65494;42.818;0.404;2023-06-14T13:59:11;9.70;;;6.03;;
55813;SDS011;65494;42.818;0.404;2023-06-14T14:01:37;12.23;;;6.10;;
55813;SDS011;65494;42.818;0.404;2023-06-14T14:04:03;11.75;;;6.20;;
55813;SDS011;65494;42.818;0.404;2023-06-14T14:06:30;9.85;;;5.97;;
55813;SDS011;65494;42.818;0.404;2023-06-14T14:08:56;9.05;;;5.50;;
55813;SDS011;65494;42.818;0.404;2023-06-14T14:11:22;9.15;;;5.18;;
55813;SDS011;65494;42.818;0.404;2023-06-14T14:13:48;9.45;;;5.55;;
55813;SDS011;65494;42.818;0.404;2023-06-14T14:16:15;10.43;;;5.00;;
55813;SDS011;65494;42.818;0.404;2023-06-14T14:18:41;9.55;;;4.95;;
55813;SDS011;65494;42.818;0.404;2023-06-14T14:21:07;9.38;;;5.20;;
55813;SDS011;65494;42.818;0.404;2023-06-14T14:23:34;9.38;;;5.50;;
55813;SDS011;65494;42.818;0.404;2023-06-14T14:26:00;9.40;;;5.75;;
55813;SDS011;65494;42.818;0.404;2023-06-14T14:28:29;8.50;;;5.10;;
55813;SDS011;65494;42.818;0.404;2023-06-14T14:30:55;10.45;;;5.45;;
55813;SDS011;65494;42.818;0.404;2023-06-14T14:33:21;10.25;;;5.38;;
55813;SDS011;65494;42.818;0.404;2023-06-14T14:35:47;10.50;;;5.55;;
55813;SDS011;65494;42.818;0.404;2023-06-14T14:38:14;9.30;;;5.15;;
55813;SDS011;65494;42.818;0.404;2023-06-14T14:40:43;9.40;;;5.00;;
55813;SDS011;65494;42.818;0.404;2023-06-14T14:43:09;8.75;;;5.20;;
55813;SDS011;65494;42.818;0.404;2023-06-14T14:45:36;9.02;;;4.68;;
55813;SDS011;65494;42.818;0.404;2023-06-14T14:48:02;8.50;;;5.07;;
55813;SDS011;65494;42.818;0.404;2023-06-14T14:50:28;10.90;;;4.82;;
55813;SDS011;65494;42.818;0.404;2023-06-14T14:52:55;8.95;;;4.88;;
55813;SDS011;65494;42.818;0.404;2023-06-14T14:55:21;8.80;;;5.03;;
55813;SDS011;65494;42.818;0.404;2023-06-14T14:57:47;9.63;;;4.93;;
55813;SDS011;65494;42.818;0.404;2023-06-14T15:00:14;10.20;;;5.05;;
55813;SDS011;65494;42.818;0.404;2023-06-14T15:02:40;9.18;;;4.90;;
55813;SDS011;65494;42.818;0.404;2023-06-14T15:05:06;10.77;;;5.03;;
55813;SDS011;65494;42.818;0.404;2023-06-14T15:07:32;7.70;;;4.57;;